Time;durP1;ratioP1;P1;durP2;ratioP2;P2;SDS_P1;SDS_P2;PMS_P1;PMS_P2;Temp;Humidity;BMP_temperature;BMP_pressure;BME280_temperature;BME280_humidity;BME280_pressure;Samples;Min_cycle;Max_cycle;Signal;HPM_P1;HPM_P2
2022/04/01 00:50:15;;;;;;;24.52;21.95;;;10.40;99.90;;;;;;4873024;29;20519;-84
2022/04/01 01:49:20;;;;;;;18.40;16.55;;;10.50;99.90;;;;;;4865216;29;20388;-87
2022/04/01 02:09:57;;;;;;;16.50;14.80;;;10.20;99.90;;;;;;4902552;29;20431;-86
2022/04/01 02:50:49;;;;;;;;;;;;;;;;;;;;;
2022/04/01 03:07:18;;;;;;;22.67;20.33;;;9.70;99.90;;;;;;4766219;30;20622;-86
2022/04/01 03:10:17;;;;;;;22.08;19.88;;;9.70;99.90;;;;;;4769208;29;20498;-86
2022/04/01 03:12:43;;;;;;;24.02;19.95;;;9.80;99.90;;;;;;4877111;29;20476;-85
2022/04/01 03:15:57;;;;;;;21.63;19.33;;;9.70;99.90;;;;;;4890604;29;20041;-85
2022/04/01 03:19:40;;;;;;;;;;;;;;;;;;;;;
2022/04/01 04:19:20;;;;;;;;;;;;;;;;;;;;;
2022/04/01 04:35:52;;;;;;;;;;;10.10;99.90;;;;;;4935255;28;20191;-86
2022/04/01 04:42:32;;;;;;;16.85;15.15;;;10.10;99.90;;;;;;4934024;29;20032;-87
2022/04/01 04:49:41;;;;;;;;;;;;;;;;;;;;;
2022/04/01 04:52:36;;;;;;;15.80;14.13;;;10.10;99.90;;;;;;4945256;28;20036;-86
2022/04/01 04:55:22;;;;;;;15.50;14.07;;;10.10;99.90;;;;;;4931077;28;20155;-87
2022/04/01 04:58:31;;;;;;;16.05;14.50;;;10.10;99.90;;;;;;4969593;28;20498;-87
2022/04/01 05:08:08;;;;;;;16.85;14.90;;;10.20;99.90;;;;;;4975095;28;20033;-86
2022/04/01 05:15:08;;;;;;;15.63;14.13;;;10.20;99.90;;;;;;4963750;28;20086;-86
2022/04/01 05:17:59;;;;;;;16.95;15.25;;;10.20;99.90;;;;;;4964861;28;20035;-86
2022/04/01 05:21:20;;;;;;;17.77;15.88;;;10.20;99.90;;;;;;4972074;28;20445;-86
2022/04/01 05:24:08;;;;;;;16.20;14.60;;;10.20;99.90;;;;;;4867644;29;20037;-86
2022/04/01 05:27:30;;;;;;;;;;;;;;;;;;;;;
2022/04/01 05:30:17;;;;;;;16.83;15.13;;;10.20;99.90;;;;;;4901501;29;20038;-87
2022/04/01 05:33:08;;;;;;;19.58;16.50;;;10.30;99.90;;;;;;4906533;29;20404;-87
2022/04/01 05:35:51;;;;;;;18.67;16.73;;;10.40;99.90;;;;;;4900114;29;20044;-86
2022/04/01 05:38:23;;;;;;;17.65;15.75;;;10.40;99.90;;;;;;4899623;29;20032;-86
2022/04/01 05:41:01;;;;;;;22.58;19.23;;;10.40;99.90;;;;;;4887471;29;20032;-86
2022/04/01 05:47:17;;;;;;;23.73;21.23;;;10.50;99.90;;;;;;4896849;29;20036;-84
2022/04/01 05:49:48;;;;;;;17.85;15.80;;;10.50;99.90;;;;;;4927899;29;20051;-85
2022/04/01 05:52:23;;;;;;;17.95;15.57;;;10.50;99.90;;;;;;4954888;28;20037;-86
2022/04/01 05:54:54;;;;;;;18.13;16.38;;;10.60;99.90;;;;;;4977976;28;20428;-85
2022/04/01 05:57:29;;;;;;;17.85;15.73;;;10.60;99.90;;;;;;4992019;28;20033;-86
2022/04/01 06:00:28;;;;;;;18.65;15.80;;;10.70;99.90;;;;;;4988110;28;20026;-85
2022/04/01 06:06:30;;;;;;;16.75;14.95;;;10.80;99.90;;;;;;4993324;28;20041;-87
2022/04/01 06:13:29;;;;;;;17.75;15.88;;;10.80;99.90;;;;;;4965632;28;20924;-86
2022/04/01 06:16:31;;;;;;;18.00;15.23;;;10.70;99.90;;;;;;4936314;28;20097;-84
2022/04/01 06:19:31;;;;;;;19.33;16.35;;;10.70;99.90;;;;;;4990666;28;20030;-84
2022/04/01 06:22:11;;;;;;;18.40;16.25;;;10.70;99.90;;;;;;4995874;28;20030;-83
2022/04/01 06:25:01;;;;;;;19.70;17.60;;;10.60;99.90;;;;;;4994310;28;20057;-88
2022/04/01 06:28:44;;;;;;;22.83;17.52;;;10.60;99.90;;;;;;4992584;28;20045;-92
2022/04/01 06:31:24;;;;;;;23.02;18.92;;;10.60;99.90;;;;;;4922415;29;20036;-93
2022/04/01 06:34:08;;;;;;;21.90;19.10;;;10.60;99.90;;;;;;4937159;28;20043;-89
2022/04/01 06:40:55;;;;;;;24.30;18.48;;;10.60;99.90;;;;;;4992935;28;20122;-91
2022/04/01 06:43:39;;;;;;;22.98;17.77;;;10.70;99.90;;;;;;4950817;29;20035;-92
2022/04/01 06:46:19;;;;;;;20.65;18.48;;;10.70;99.90;;;;;;4951098;28;20070;-92
2022/04/01 06:48:56;;;;;;;19.13;17.13;;;10.80;99.90;;;;;;4932578;29;20071;-92
2022/04/01 06:51:22;;;;;;;21.15;18.48;;;10.80;99.90;;;;;;4958357;28;20258;-92
2022/04/01 06:53:52;;;;;;;21.08;18.33;;;10.90;99.90;;;;;;4997866;28;20056;-92
2022/04/01 06:56:25;;;;;;;20.15;17.33;;;10.90;99.90;;;;;;5004814;28;20021;-90
2022/04/01 06:59:10;;;;;;;24.40;16.52;;;11.00;99.90;;;;;;5009410;28;20488;-92
2022/04/01 07:01:37;;;;;;;22.20;16.92;;;11.00;99.90;;;;;;4995043;28;20026;-91
2022/04/01 07:04:14;;;;;;;21.80;16.83;;;11.00;99.90;;;;;;5009089;28;20038;-90
2022/04/01 07:06:43;;;;;;;22.50;16.77;;;11.00;99.90;;;;;;5002240;28;20025;-91
2022/04/01 07:12:17;;;;;;;18.85;16.83;;;11.20;99.90;;;;;;5025205;28;20024;-90
2022/04/01 07:18:39;;;;;;;18.90;16.52;;;11.30;99.90;;;;;;5020900;28;20057;-91
2022/04/01 07:21:17;;;;;;;17.00;14.38;;;11.30;99.90;;;;;;5028291;28;20017;-91
2022/04/01 07:23:49;;;;;;;22.50;16.30;;;11.30;99.90;;;;;;5011941;28;20030;-91
2022/04/01 07:26:19;;;;;;;20.02;16.05;;;11.30;99.90;;;;;;4998296;28;20030;-91
2022/04/01 07:28:45;;;;;;;17.67;14.52;;;11.30;99.90;;;;;;5001778;28;20026;-90
2022/04/01 07:34:00;;;;;;;18.95;15.35;;;11.30;99.90;;;;;;5005402;28;20089;-92
2022/04/01 07:36:58;;;;;;;17.27;15.45;;;11.30;99.90;;;;;;5021442;28;20017;-93
2022/04/01 07:42:38;;;;;;;18.92;15.15;;;11.50;99.90;;;;;;4956223;28;20063;-91
2022/04/01 07:45:05;;;;;;;20.92;14.90;;;11.60;99.90;;;;;;5106855;23;20058;-86
2022/04/01 07:47:37;;;;;;;15.80;13.82;;;11.70;99.90;;;;;;5002439;28;20048;-91
2022/04/01 07:50:05;;;;;;;15.75;13.15;;;11.90;99.90;;;;;;5003652;28;20036;-87
2022/04/01 07:52:32;;;;;;;14.75;12.82;;;12.00;99.90;;;;;;5007629;28;20025;-88
2022/04/01 07:54:58;;;;;;;14.70;12.15;;;12.10;99.90;;;;;;5022821;28;20066;-87
2022/04/01 07:57:53;;;;;;;13.30;11.88;;;12.10;99.90;;;;;;5000055;28;20030;-89
2022/04/01 08:00:23;;;;;;;16.55;12.15;;;12.10;99.90;;;;;;5020853;28;20038;-92
2022/04/01 08:02:52;;;;;;;;;;;12.10;99.90;;;;;;5005317;28;20034;-89
2022/04/01 08:05:21;;;;;;;14.05;12.55;;;12.10;99.90;;;;;;4994682;28;20385;-88
2022/04/01 08:07:58;;;;;;;16.27;12.45;;;12.10;99.90;;;;;;4991425;28;20058;-88
2022/04/01 08:10:29;;;;;;;14.20;12.43;;;12.20;99.90;;;;;;5004511;28;20023;-89
2022/04/01 08:12:59;;;;;;;13.85;11.65;;;12.20;99.90;;;;;;4992546;28;20028;-88
2022/04/01 08:15:24;;;;;;;17.80;12.23;;;12.20;99.90;;;;;;4972202;28;20034;-90
2022/04/01 08:17:55;;;;;;;16.38;12.15;;;12.20;99.90;;;;;;5000655;28;20032;-88
2022/04/01 08:20:26;;;;;;;16.25;12.25;;;12.20;99.90;;;;;;4989505;28;20057;-89
2022/04/01 08:22:53;;;;;;;15.63;12.00;;;12.30;99.90;;;;;;4993112;28;20482;-89
2022/04/01 08:25:23;;;;;;;13.93;12.60;;;12.30;99.90;;;;;;4984634;28;20064;-88
2022/04/01 08:27:59;;;;;;;14.18;12.50;;;12.30;99.90;;;;;;4980976;28;20053;-87
2022/04/01 08:30:28;;;;;;;15.93;12.50;;;12.30;99.90;;;;;;5001424;28;20026;-89
2022/04/01 08:33:00;;;;;;;13.95;12.55;;;12.40;99.90;;;;;;4998560;28;20034;-88
2022/04/01 08:35:28;;;;;;;13.18;10.27;;;12.50;99.90;;;;;;4983122;28;20100;-88
2022/04/01 08:38:09;;;;;;;10.98;9.45;;;12.70;99.90;;;;;;4987528;28;20038;-88
2022/04/01 08:40:36;;;;;;;10.20;9.13;;;12.90;99.90;;;;;;4989615;28;20041;-88
2022/04/01 08:43:07;;;;;;;19.70;7.63;;;13.00;99.90;;;;;;4988740;28;20053;-88
2022/04/01 08:45:37;;;;;;;8.75;7.10;;;13.20;99.90;;;;;;4978831;28;20433;-88
2022/04/01 08:48:10;;;;;;;6.70;6.00;;;13.30;99.90;;;;;;5010639;28;20022;-88
2022/04/01 08:50:40;;;;;;;6.90;6.13;;;13.30;99.90;;;;;;4998096;28;20019;-87
2022/04/01 08:53:06;;;;;;;7.40;6.07;;;13.30;99.90;;;;;;5007715;28;20041;-88
2022/04/01 08:55:44;;;;;;;7.25;4.93;;;13.30;99.90;;;;;;4980320;28;20019;-87
2022/04/01 08:58:11;;;;;;;7.15;5.15;;;13.20;99.90;;;;;;4995375;28;20031;-89
2022/04/01 09:00:37;;;;;;;8.52;5.70;;;13.10;99.90;;;;;;4987214;28;20023;-87
2022/04/01 09:03:42;;;;;;;5.70;5.13;;;13.00;99.90;;;;;;4982155;28;20037;-88
2022/04/01 09:06:08;;;;;;;5.63;5.05;;;13.00;99.90;;;;;;4977893;28;20481;-88
2022/04/01 09:08:38;;;;;;;5.93;5.32;;;12.80;99.90;;;;;;4994695;28;20037;-88
2022/04/01 09:11:20;;;;;;;;;;;;;;;;;;;;;
2022/04/01 09:13:52;;;;;;;6.15;5.22;;;12.70;99.90;;;;;;4998714;28;20030;-87
2022/04/01 09:16:38;;;;;;;7.03;5.22;;;12.70;99.90;;;;;;5002141;28;20113;-88
2022/04/01 09:19:08;;;;;;;4.97;4.57;;;12.90;99.90;;;;;;4978506;28;20030;-87
2022/04/01 09:21:49;;;;;;;4.70;4.20;;;13.00;99.90;;;;;;4977730;28;20032;-88
2022/04/01 09:24:20;;;;;;;5.07;4.57;;;13.10;99.90;;;;;;4998660;28;20026;-87
2022/04/01 09:27:14;;;;;;;4.50;4.00;;;13.40;99.90;;;;;;4999934;28;20014;-91
2022/04/01 09:29:51;;;;;;;;;;;13.60;99.90;;;;;;4993986;28;20046;-89
2022/04/01 09:32:17;;;;;;;3.33;2.60;;;14.00;99.90;;;;;;4980895;28;19912;-89
2022/04/01 09:34:43;;;;;;;2.55;2.35;;;14.30;99.90;;;;;;4981329;28;20030;-90
2022/04/01 09:37:45;;;;;;;4.25;2.85;;;14.70;99.90;;;;;;4980183;28;20088;-90
2022/04/01 09:40:44;;;;;;;3.40;2.60;;;15.00;99.90;;;;;;4960722;28;20050;-90
2022/04/01 09:43:25;;;;;;;4.70;2.80;;;15.30;99.90;;;;;;4987787;28;20034;-89
2022/04/01 09:45:56;;;;;;;4.18;2.50;;;15.50;99.90;;;;;;4983767;28;20054;-90
2022/04/01 09:48:39;;;;;;;3.53;2.88;;;15.40;99.90;;;;;;4980343;28;20433;-90
2022/04/01 09:51:12;;;;;;;5.05;3.50;;;15.50;99.90;;;;;;4972329;28;20043;-89
2022/04/01 09:53:42;;;;;;;9.02;3.40;;;15.50;99.90;;;;;;4999645;28;20092;-90
2022/04/01 09:56:28;;;;;;;4.40;3.80;;;15.50;99.90;;;;;;5010949;28;20045;-90
2022/04/01 09:59:01;;;;;;;6.00;3.63;;;15.60;99.90;;;;;;4989770;28;20052;-89
2022/04/01 10:01:56;;;;;;;9.25;3.70;;;15.90;99.90;;;;;;4990924;28;20500;-89
2022/04/01 10:04:27;;;;;;;3.88;3.05;;;16.00;99.90;;;;;;4987296;28;20045;-90
2022/04/01 10:07:08;;;;;;;4.40;3.20;;;16.20;99.90;;;;;;4981226;28;20117;-89
2022/04/01 10:09:43;;;;;;;4.00;3.20;;;16.30;99.90;;;;;;5003880;28;20035;-89
2022/04/01 10:12:18;;;;;;;6.50;3.58;;;16.30;99.90;;;;;;4991033;28;20034;-90
2022/04/01 10:14:51;;;;;;;4.00;3.30;;;16.30;99.90;;;;;;4987612;28;20041;-89
2022/04/01 10:18:45;;;;;;;8.48;3.22;;;16.20;99.90;;;;;;4995812;28;20019;-89
2022/04/01 10:20:53;;;;;;;3.70;2.65;;;16.40;99.90;;;;;;4985724;28;20121;-89
2022/04/01 10:23:29;;;;;;;4.25;3.10;;;16.60;99.90;;;;;;4994336;28;20049;-89
2022/04/01 10:26:05;;;;;;;12.55;2.97;;;16.80;99.90;;;;;;4981707;28;20033;-89
2022/04/01 10:28:31;;;;;;;11.98;2.90;;;17.00;99.90;;;;;;4985242;28;20511;-89
2022/04/01 10:31:13;;;;;;;5.65;2.92;;;17.10;99.90;;;;;;4988524;28;20037;-90
2022/04/01 10:33:42;;;;;;;3.58;2.70;;;17.20;99.90;;;;;;4974868;28;20104;-89
2022/04/01 10:36:42;;;;;;;13.73;3.10;;;17.40;99.90;;;;;;5010292;28;20045;-88
2022/04/01 10:39:17;;;;;;;5.88;2.92;;;17.50;99.90;;;;;;4977676;28;20036;-89
2022/04/01 10:42:11;;;;;;;5.22;3.30;;;17.60;99.90;;;;;;4997951;28;20022;-89
2022/04/01 10:45:06;;;;;;;3.17;2.58;;;17.60;99.90;;;;;;5006952;28;20018;-88
2022/04/01 10:53:51;;;;;;;4.93;2.67;;;17.30;99.90;;;;;;4973105;28;20050;-89
2022/04/01 10:56:41;;;;;;;9.45;5.30;;;16.80;99.90;;;;;;4981855;28;20054;-89
2022/04/01 10:59:27;;;;;;;5.10;3.05;;;16.70;99.90;;;;;;4971066;28;20524;-88
2022/04/01 11:01:52;;;;;;;4.60;2.65;;;16.90;99.90;;;;;;4963219;28;20027;-90
2022/04/01 11:04:22;;;;;;;5.70;3.30;;;17.30;99.90;;;;;;4962822;28;20464;-88
2022/04/01 11:07:04;;;;;;;8.82;4.78;;;17.30;99.90;;;;;;4972251;28;20019;-89
2022/04/01 11:10:03;;;;;;;11.00;6.40;;;17.30;99.90;;;;;;4972446;28;20028;-89
2022/04/01 11:12:42;;;;;;;13.48;7.43;;;17.50;99.90;;;;;;4974756;28;20019;-90
2022/04/01 11:15:17;;;;;;;14.38;7.70;;;17.20;99.90;;;;;;4967213;28;20090;-88
2022/04/01 11:17:47;;;;;;;8.90;6.13;;;17.30;99.90;;;;;;4979843;28;20390;-87
2022/04/01 11:20:22;;;;;;;11.30;6.68;;;17.50;99.90;;;;;;4964618;28;20027;-89
2022/04/01 11:23:15;;;;;;;11.50;6.72;;;17.40;99.90;;;;;;4966116;28;20124;-91
2022/04/01 11:25:52;;;;;;;12.38;6.75;;;17.20;99.90;;;;;;4967615;28;20067;-88
2022/04/01 11:28:18;;;;;;;11.77;6.43;;;16.70;99.90;;;;;;4965598;28;20074;-84
2022/04/01 11:30:51;;;;;;;12.45;6.63;;;16.30;99.90;;;;;;4961518;28;20371;-85
2022/04/01 11:33:20;;;;;;;7.45;4.95;;;16.10;99.90;;;;;;4974772;28;20031;-84
2022/04/01 11:35:49;;;;;;;9.43;4.75;;;15.90;99.90;;;;;;4959250;28;20098;-84
2022/04/01 11:38:20;;;;;;;11.68;5.75;;;15.60;99.90;;;;;;4962495;28;20019;-85
2022/04/01 11:40:51;;;;;;;9.25;5.53;;;15.70;99.90;;;;;;4955790;28;20510;-85
2022/04/01 11:43:22;;;;;;;9.88;5.93;;;15.90;99.90;;;;;;4978835;28;20118;-84
2022/04/01 11:45:57;;;;;;;8.63;4.90;;;16.40;99.90;;;;;;4977737;28;20112;-84
2022/04/01 11:48:44;;;;;;;8.23;4.68;;;16.70;99.90;;;;;;4997486;28;20026;-83
2022/04/01 11:51:24;;;;;;;11.77;5.95;;;16.30;99.90;;;;;;4998174;28;20029;-85
2022/04/01 11:54:19;;;;;;;5.78;5.00;;;16.10;99.90;;;;;;4985890;28;20124;-84
2022/04/01 11:56:50;;;;;;;9.55;4.65;;;16.10;99.90;;;;;;4984511;28;20149;-84
2022/04/01 11:59:16;;;;;;;8.13;4.80;;;16.00;99.90;;;;;;5003431;28;20027;-84
2022/04/01 12:01:58;;;;;;;7.45;4.80;;;16.30;99.90;;;;;;4984081;28;20030;-84
2022/04/01 12:04:29;;;;;;;8.20;5.00;;;16.60;99.90;;;;;;4999078;28;20033;-84
2022/04/01 12:09:43;;;;;;;16.80;4.63;;;17.00;99.90;;;;;;5005178;28;20029;-84
2022/04/01 12:12:15;;;;;;;9.82;4.40;;;16.80;99.90;;;;;;5004774;28;20027;-86
2022/04/01 12:14:42;;;;;;;6.60;3.95;;;16.60;99.90;;;;;;5008707;28;20045;-87
2022/04/01 12:17:11;;;;;;;9.60;4.25;;;16.60;99.90;;;;;;5003828;28;20176;-86
2022/04/01 12:19:37;;;;;;;8.55;4.47;;;16.50;99.90;;;;;;4991357;28;20030;-86
2022/04/01 12:22:04;;;;;;;12.77;4.18;;;16.20;99.90;;;;;;4999372;28;20454;-86
2022/04/01 12:24:38;;;;;;;8.13;4.13;;;16.10;99.90;;;;;;4987919;28;20030;-87
2022/04/01 12:27:09;;;;;;;9.95;4.55;;;16.00;99.90;;;;;;5013352;28;20385;-89
2022/04/01 12:29:36;;;;;;;9.73;4.05;;;16.00;99.90;;;;;;4992643;28;20506;-88
2022/04/01 12:32:18;;;;;;;9.52;4.20;;;15.80;99.90;;;;;;4994319;28;20022;-88
2022/04/01 12:34:49;;;;;;;8.23;3.90;;;15.90;99.90;;;;;;4968535;28;20066;-86
2022/04/01 12:37:15;;;;;;;8.63;3.55;;;16.20;99.90;;;;;;4992759;28;20068;-87
2022/04/01 12:39:45;;;;;;;8.80;3.53;;;16.40;99.90;;;;;;4985745;28;20030;-86
2022/04/01 12:42:14;;;;;;;12.15;3.22;;;16.40;99.90;;;;;;5004457;28;20092;-87
2022/04/01 12:44:41;;;;;;;8.70;4.03;;;16.40;99.90;;;;;;4980428;28;20022;-87
2022/04/01 12:47:08;;;;;;;11.40;3.42;;;16.80;99.90;;;;;;5006176;28;20038;-86
2022/04/01 12:49:35;;;;;;;11.13;2.97;;;17.80;99.90;;;;;;4987759;28;20026;-86
2022/04/01 12:52:05;;;;;;;11.52;4.05;;;18.50;99.90;;;;;;5007829;28;20018;-88
2022/04/01 12:54:33;;;;;;;7.70;3.33;;;18.50;99.90;;;;;;4985916;28;20034;-84
2022/04/01 12:57:03;;;;;;;6.93;3.20;;;18.30;99.90;;;;;;5008519;28;20053;-84
2022/04/01 12:59:40;;;;;;;9.40;3.22;;;18.10;99.90;;;;;;5005835;28;20033;-88
2022/04/01 13:02:17;;;;;;;7.72;2.78;;;18.20;99.90;;;;;;5006240;28;20018;-87
2022/04/01 13:04:49;;;;;;;8.40;3.53;;;19.30;99.90;;;;;;4995342;28;20500;-89
2022/04/01 13:07:19;;;;;;;7.72;2.80;;;19.80;99.90;;;;;;5008586;28;20387;-87
2022/04/01 13:09:46;;;;;;;10.40;3.20;;;19.90;99.90;;;;;;4993231;28;20034;-87
2022/04/01 13:12:24;;;;;;;9.80;2.75;;;20.20;99.90;;;;;;4985938;28;20018;-88
2022/04/01 13:14:58;;;;;;;11.50;2.90;;;19.90;99.90;;;;;;5003836;28;20044;-84
2022/04/01 13:17:39;;;;;;;13.90;2.92;;;19.70;99.90;;;;;;5008990;28;20026;-86
2022/04/01 13:20:17;;;;;;;8.32;2.40;;;19.40;99.90;;;;;;4979238;28;20489;-92
2022/04/01 13:22:46;;;;;;;9.80;3.00;;;19.30;99.90;;;;;;5001675;28;20025;-83
2022/04/01 13:25:19;;;;;;;11.75;2.90;;;19.10;99.90;;;;;;5003764;28;20034;-88
2022/04/01 13:27:59;;;;;;;9.35;2.72;;;18.80;99.90;;;;;;5016826;28;20021;-88
2022/04/01 13:30:34;;;;;;;7.03;3.00;;;18.40;99.90;;;;;;5001829;28;20034;-89
2022/04/01 13:33:02;;;;;;;12.50;2.75;;;17.90;99.90;;;;;;5010083;28;20054;-86
2022/04/01 13:35:31;;;;;;;6.35;3.10;;;17.50;99.90;;;;;;4981312;28;20038;-86
2022/04/01 13:37:59;;;;;;;15.27;3.17;;;17.50;99.90;;;;;;4980909;28;20031;-83
2022/04/01 13:40:28;;;;;;;11.60;3.33;;;18.00;99.90;;;;;;5001418;28;20037;-83
2022/04/01 13:42:54;;;;;;;10.60;3.08;;;18.50;99.90;;;;;;4998032;28;20389;-83
2022/04/01 13:45:20;;;;;;;9.55;3.08;;;18.30;99.90;;;;;;4992738;28;20078;-82
2022/04/01 13:47:51;;;;;;;9.75;3.08;;;17.80;99.90;;;;;;4992483;28;20034;-83
2022/04/01 13:50:17;;;;;;;10.70;3.70;;;17.40;99.90;;;;;;5007426;28;20034;-83
2022/04/01 13:52:43;;;;;;;10.18;2.63;;;17.50;99.90;;;;;;4975371;28;20030;-84
2022/04/01 13:55:09;;;;;;;7.55;3.15;;;17.70;99.90;;;;;;4994605;28;20584;-83
2022/04/01 13:57:35;;;;;;;8.38;2.95;;;17.80;99.90;;;;;;4995777;28;20026;-83
2022/04/01 14:00:01;;;;;;;7.15;3.17;;;17.30;99.90;;;;;;5000101;28;20080;-82
2022/04/01 14:02:27;;;;;;;6.70;2.83;;;16.90;99.90;;;;;;4999046;28;20299;-83
2022/04/01 14:04:53;;;;;;;8.68;3.50;;;16.60;99.90;;;;;;5003658;28;20644;-83
2022/04/01 14:07:19;;;;;;;12.10;3.10;;;16.30;99.90;;;;;;5000488;28;20029;-83
2022/04/01 14:09:46;;;;;;;10.00;3.22;;;16.00;99.90;;;;;;5004055;28;20026;-83
2022/04/01 14:12:15;;;;;;;9.43;3.03;;;15.50;99.90;;;;;;4988286;28;20030;-83
2022/04/01 14:14:41;;;;;;;10.15;3.20;;;15.20;99.90;;;;;;4980453;28;20040;-83
2022/04/01 14:17:07;;;;;;;9.60;3.03;;;15.00;99.90;;;;;;4988452;28;20022;-82
2022/04/01 14:19:38;;;;;;;11.73;3.38;;;14.90;99.90;;;;;;4998320;28;20029;-83
2022/04/01 14:22:07;;;;;;;8.90;3.30;;;14.90;99.90;;;;;;4982212;28;20031;-82
2022/04/01 14:24:33;;;;;;;14.15;4.03;;;14.90;99.90;;;;;;4978308;28;20022;-82
2022/04/01 14:26:59;;;;;;;11.25;3.70;;;14.90;99.90;;;;;;4998707;28;20038;-83
2022/04/01 14:32:09;;;;;;;13.07;3.80;;;14.80;99.90;;;;;;4998468;28;20042;-83
2022/04/01 14:34:37;;;;;;;8.55;3.90;;;14.70;99.90;;;;;;4983879;28;20497;-84
2022/04/01 14:37:05;;;;;;;10.73;3.75;;;14.70;99.90;;;;;;5002259;28;20046;-84
2022/04/01 14:39:34;;;;;;;11.40;4.18;;;14.60;99.90;;;;;;4974312;28;20080;-84
2022/04/01 14:42:00;;;;;;;11.10;4.07;;;14.70;99.90;;;;;;4998378;28;20108;-84
2022/04/01 14:44:29;;;;;;;9.25;3.83;;;14.80;99.90;;;;;;4982842;28;20034;-84
2022/04/01 14:46:56;;;;;;;11.35;4.30;;;14.80;99.90;;;;;;4984074;28;20136;-85
2022/04/01 14:49:22;;;;;;;13.57;3.45;;;14.80;99.90;;;;;;4979769;28;20086;-83
2022/04/01 14:51:48;;;;;;;13.40;4.07;;;14.70;99.90;;;;;;4987287;28;20062;-84
2022/04/01 14:54:15;;;;;;;11.70;4.32;;;14.60;99.90;;;;;;4981641;28;20431;-84
2022/04/01 14:56:45;;;;;;;11.95;3.30;;;14.70;99.90;;;;;;4981324;28;20026;-83
2022/04/01 14:59:11;;;;;;;16.52;3.95;;;14.80;99.90;;;;;;4977069;28;20030;-84
2022/04/01 15:01:37;;;;;;;13.55;3.90;;;14.90;99.90;;;;;;4983201;28;20490;-84
2022/04/01 15:04:03;;;;;;;11.10;4.00;;;15.00;99.90;;;;;;4977590;28;20041;-83
2022/04/01 15:06:29;;;;;;;14.43;4.35;;;15.10;99.90;;;;;;4984760;28;20034;-84
2022/04/01 15:08:56;;;;;;;11.60;4.80;;;15.10;99.90;;;;;;4984019;28;20062;-84
2022/04/01 15:11:22;;;;;;;11.88;4.57;;;15.10;99.90;;;;;;4980456;28;20126;-84
2022/04/01 15:13:48;;;;;;;12.75;4.00;;;15.00;99.90;;;;;;4984210;28;20042;-84
2022/04/01 15:16:14;;;;;;;12.52;4.28;;;15.00;99.90;;;;;;4981460;28;20073;-84
2022/04/01 15:18:40;;;;;;;10.35;4.38;;;15.00;99.90;;;;;;4979828;28;20038;-84
2022/04/01 15:21:13;;;;;;;13.93;3.70;;;14.90;99.90;;;;;;4986821;28;20078;-84
2022/04/01 15:23:41;;;;;;;11.57;3.92;;;15.00;99.90;;;;;;4972147;28;20085;-84
2022/04/01 15:26:09;;;;;;;13.98;4.05;;;15.10;99.90;;;;;;4978329;28;20030;-84
2022/04/01 15:28:35;;;;;;;22.10;4.43;;;15.40;99.90;;;;;;4969433;28;20022;-84
2022/04/01 15:31:07;;;;;;;11.43;4.18;;;15.50;99.90;;;;;;4981400;28;20030;-89
2022/04/01 15:33:45;;;;;;;14.98;4.88;;;15.50;99.90;;;;;;4972062;28;20058;-86
2022/04/01 15:36:12;;;;;;;13.80;4.90;;;15.40;99.90;;;;;;4983094;28;20088;-85
2022/04/01 15:38:39;;;;;;;11.88;4.28;;;15.30;99.90;;;;;;4978539;28;20022;-84
2022/04/01 15:41:09;;;;;;;15.23;4.70;;;15.10;99.90;;;;;;4979702;28;20394;-84
2022/04/01 15:43:36;;;;;;;23.20;5.97;;;15.00;99.90;;;;;;4972492;28;20023;-84
2022/04/01 15:46:09;;;;;;;14.38;5.47;;;15.00;99.90;;;;;;4981401;28;20047;-84
2022/04/01 15:48:39;;;;;;;20.60;5.75;;;14.90;99.90;;;;;;4970931;28;20031;-85
2022/04/01 15:51:06;;;;;;;12.27;5.28;;;14.50;99.90;;;;;;4988591;28;20030;-84
2022/04/01 15:53:37;;;;;;;17.13;5.00;;;14.30;99.90;;;;;;4980641;28;20037;-84
2022/04/01 15:56:05;;;;;;;14.20;5.22;;;14.20;99.90;;;;;;4986565;28;20564;-84
2022/04/01 15:58:31;;;;;;;10.88;4.47;;;14.10;99.90;;;;;;4980775;28;20177;-83
2022/04/01 16:01:02;;;;;;;10.35;4.75;;;14.10;99.90;;;;;;4989807;28;20036;-84
2022/04/01 16:03:31;;;;;;;49.15;27.83;;;14.00;99.90;;;;;;4978645;28;20122;-85
2022/04/01 16:05:57;;;;;;;27.77;10.63;;;14.10;99.90;;;;;;4991402;28;20138;-85
2022/04/01 16:08:24;;;;;;;12.25;3.85;;;14.20;99.90;;;;;;4988509;28;20030;-85
2022/04/01 16:10:50;;;;;;;17.52;4.30;;;14.10;99.90;;;;;;4985621;28;20385;-84
2022/04/01 16:13:41;;;;;;;8.50;3.40;;;14.10;99.90;;;;;;4983423;28;20031;-83
2022/04/01 16:16:08;;;;;;;8.35;3.72;;;14.10;99.90;;;;;;4983159;28;20076;-85
2022/04/01 16:18:36;;;;;;;8.07;3.45;;;14.00;99.90;;;;;;4972957;28;20085;-84
2022/04/01 16:21:02;;;;;;;9.63;3.42;;;13.90;99.90;;;;;;4985359;28;20061;-83
2022/04/01 16:23:30;;;;;;;8.27;3.20;;;13.90;99.90;;;;;;4985159;28;20030;-84
2022/04/01 16:25:58;;;;;;;5.70;2.67;;;13.90;99.90;;;;;;4991553;28;20033;-84
2022/04/01 16:28:26;;;;;;;7.65;3.22;;;13.90;99.90;;;;;;4980659;28;20059;-85
2022/04/01 16:30:53;;;;;;;8.15;4.05;;;13.90;99.90;;;;;;4981185;28;20037;-85
2022/04/01 16:33:23;;;;;;;12.75;5.30;;;13.90;99.90;;;;;;4984022;28;20038;-84
2022/04/01 16:35:50;;;;;;;74.07;44.55;;;13.90;99.90;;;;;;4986212;28;20034;-84
2022/04/01 16:38:17;;;;;;;55.35;34.03;;;13.90;99.90;;;;;;4993555;28;20610;-83
2022/04/01 16:40:43;;;;;;;68.90;42.22;;;13.90;99.90;;;;;;4984032;28;20031;-83
2022/04/01 16:43:09;;;;;;;10.68;4.05;;;13.90;99.90;;;;;;4981690;28;20021;-84
2022/04/01 16:45:34;;;;;;;9.23;4.57;;;13.70;99.90;;;;;;4992548;28;20066;-84
2022/04/01 16:48:00;;;;;;;7.97;3.75;;;13.60;99.90;;;;;;4985951;28;20513;-84
2022/04/01 16:50:26;;;;;;;8.00;3.33;;;13.50;99.90;;;;;;4985813;28;20615;-84
2022/04/01 16:52:52;;;;;;;12.32;4.20;;;13.30;99.90;;;;;;4981406;28;20578;-84
2022/04/01 16:55:18;;;;;;;11.57;3.58;;;13.20;99.90;;;;;;4982821;28;20053;-83
2022/04/01 16:57:44;;;;;;;8.18;3.63;;;13.10;99.90;;;;;;4987227;28;20101;-84
2022/04/01 17:00:13;;;;;;;8.57;2.85;;;13.00;99.90;;;;;;4986513;28;20034;-85
2022/04/01 17:02:39;;;;;;;9.43;3.60;;;13.00;99.90;;;;;;4985313;28;20212;-84
2022/04/01 17:05:05;;;;;;;9.73;3.40;;;13.00;99.90;;;;;;4983744;28;20051;-83
2022/04/01 17:12:31;;;;;;;16.30;6.88;;;13.00;99.90;;;;;;4988819;28;20548;-84
2022/04/01 17:13:22;;;;;;;17.92;5.57;;;13.00;99.90;;;;;;4972636;28;20069;-84
2022/04/01 17:15:50;;;;;;;10.30;4.40;;;13.10;99.90;;;;;;4984470;28;20088;-85
2022/04/01 17:18:16;;;;;;;7.95;4.05;;;13.10;99.90;;;;;;4988578;28;20023;-84
2022/04/01 17:20:43;;;;;;;11.93;4.53;;;13.00;99.90;;;;;;4984266;28;20030;-84
2022/04/01 17:23:09;;;;;;;14.02;6.78;;;13.00;99.90;;;;;;4979479;28;20030;-84
2022/04/01 17:25:36;;;;;;;14.68;6.35;;;12.90;99.90;;;;;;4975741;28;20545;-85
2022/04/01 17:28:12;;;;;;;13.10;5.10;;;12.90;99.90;;;;;;4980666;28;20033;-84
2022/04/01 17:30:38;;;;;;;8.98;4.03;;;12.90;99.90;;;;;;4975088;28;20037;-82
2022/04/01 17:33:06;;;;;;;8.93;3.80;;;12.80;99.90;;;;;;4992555;28;20026;-85
2022/04/01 17:35:34;;;;;;;11.57;4.13;;;12.90;99.90;;;;;;4976918;28;20031;-83
2022/04/01 17:38:00;;;;;;;16.50;5.18;;;12.80;99.90;;;;;;4983759;28;20149;-83
2022/04/01 17:40:26;;;;;;;9.73;4.97;;;12.80;99.90;;;;;;4983774;28;20088;-83
2022/04/01 17:42:55;;;;;;;15.90;5.63;;;12.80;99.90;;;;;;4982258;28;20027;-85
2022/04/01 17:45:28;;;;;;;12.63;5.38;;;12.80;99.90;;;;;;4983641;28;20584;-84
2022/04/01 17:47:59;;;;;;;9.95;4.95;;;12.80;99.90;;;;;;5005427;28;20037;-83
2022/04/01 17:50:28;;;;;;;13.73;5.38;;;12.70;99.90;;;;;;5001902;28;20042;-84
2022/04/01 17:52:55;;;;;;;12.13;4.78;;;12.70;99.90;;;;;;5003801;28;20575;-84
2022/04/01 17:55:21;;;;;;;9.25;4.32;;;12.60;99.90;;;;;;4992637;28;20035;-83
2022/04/01 17:57:49;;;;;;;12.98;4.85;;;12.60;99.90;;;;;;5004041;28;20477;-83
2022/04/01 18:00:17;;;;;;;10.32;5.00;;;12.60;99.90;;;;;;5002911;28;20481;-83
2022/04/01 18:02:45;;;;;;;11.27;4.90;;;12.60;99.90;;;;;;4988692;28;20141;-83
2022/04/01 18:05:12;;;;;;;12.43;4.60;;;12.50;99.90;;;;;;5000244;28;20025;-83
2022/04/01 18:07:42;;;;;;;9.68;4.30;;;12.40;99.90;;;;;;4970947;28;20030;-83
2022/04/01 18:10:09;;;;;;;12.82;4.68;;;12.40;99.90;;;;;;4985859;28;20022;-84
2022/04/01 18:12:35;;;;;;;10.00;4.20;;;12.40;99.90;;;;;;4986698;28;20037;-84
2022/04/01 18:15:06;;;;;;;9.90;4.47;;;12.30;99.90;;;;;;4985454;28;20045;-84
2022/04/01 18:17:34;;;;;;;14.65;6.78;;;12.20;99.90;;;;;;4983181;28;20018;-83
2022/04/01 18:20:04;;;;;;;12.15;5.60;;;12.20;99.90;;;;;;5001579;28;20022;-84
2022/04/01 18:22:31;;;;;;;15.48;5.53;;;12.20;99.90;;;;;;4999358;28;20105;-83
2022/04/01 18:25:12;;;;;;;13.10;4.72;;;12.10;99.90;;;;;;5002467;28;20085;-84
2022/04/01 18:27:51;;;;;;;9.02;4.50;;;12.20;99.90;;;;;;4987833;28;20041;-83
2022/04/01 18:30:29;;;;;;;9.00;4.95;;;12.30;99.90;;;;;;4985069;28;20493;-83